Time;durP1;ratioP1;P1;durP2;ratioP2;P2;SDS_P1;SDS_P2;PMS_P1;PMS_P2;Temp;Humidity;BMP_temperature;BMP_pressure;BME280_temperature;BME280_humidity;BME280_pressure;Samples;Min_cycle;Max_cycle;Signal;HPM_P1;HPM_P2
2020/12/04 00:00:14;;;;;;;10.63;9.13;;;;;;;2.00;76.06;97863.69;2061853;28;20053;-57
2020/12/04 00:01:14;;;;;;;10.98;9.02;;;;;;;1.99;76.00;97861.19;2070114;28;20018;-58
2020/12/04 00:02:14;;;;;;;13.33;9.37;;;;;;;2.01;76.45;97861.94;2070302;28;20034;-58
2020/12/04 00:03:15;;;;;;;11.37;8.93;;;;;;;2.01;75.52;97859.38;2069690;28;20021;-58
2020/12/04 00:04:15;;;;;;;16.30;9.07;;;;;;;2.00;75.65;97850.03;2070811;28;20109;-58
2020/12/04 00:05:15;;;;;;;11.47;8.77;;;;;;;2.02;75.73;97858.50;2070474;28;20049;-57
2020/12/04 00:06:15;;;;;;;14.63;8.80;;;;;;;2.06;75.42;97851.56;2070771;28;20057;-58
2020/12/04 00:07:16;;;;;;;11.40;8.87;;;;;;;1.99;75.85;97849.16;2071354;28;20390;-57
2020/12/04 00:08:16;;;;;;;11.20;8.77;;;;;;;2.07;75.41;97850.63;2070921;28;20029;-58
2020/12/04 00:09:16;;;;;;;11.03;8.87;;;;;;;2.07;75.72;97848.91;2070925;28;20032;-58
2020/12/04 00:10:17;;;;;;;11.97;9.07;;;;;;;2.08;75.19;97842.91;2069938;28;20162;-58
2020/12/04 00:11:17;;;;;;;11.07;8.93;;;;;;;2.16;74.58;97845.19;2069562;28;20026;-58
2020/12/04 00:12:17;;;;;;;12.73;9.23;;;;;;;2.15;74.58;97846.94;2067058;28;20032;-57
2020/12/04 00:13:17;;;;;;;11.90;8.37;;;;;;;2.15;74.48;97840.97;2070352;28;20037;-58
2020/12/04 00:14:18;;;;;;;10.93;8.80;;;;;;;2.12;74.86;97844.44;2071125;28;20071;-58
2020/12/04 00:15:18;;;;;;;11.10;8.77;;;;;;;2.11;74.92;97839.38;2070546;28;20219;-58
2020/12/04 00:16:18;;;;;;;12.07;8.30;;;;;;;2.08;75.26;97835.19;2074435;28;20025;-58
2020/12/04 00:17:19;;;;;;;11.33;8.43;;;;;;;2.08;75.33;97834.34;2070209;28;20165;-57
2020/12/04 00:18:19;;;;;;;10.93;8.40;;;;;;;2.11;75.17;97835.06;2069062;28;20041;-58
2020/12/04 00:19:19;;;;;;;10.63;8.27;;;;;;;2.14;74.62;97837.53;2070180;28;20504;-58
2020/12/04 00:20:19;;;;;;;11.20;8.57;;;;;;;2.18;74.10;97831.41;2064097;28;20091;-58
2020/12/04 00:21:20;;;;;;;10.23;8.30;;;;;;;2.24;74.22;97834.66;2068395;28;20030;-58
2020/12/04 00:22:20;;;;;;;10.33;8.57;;;;;;;2.22;73.83;97828.72;2069771;28;20021;-57
2020/12/04 00:23:20;;;;;;;15.93;9.50;;;;;;;2.23;74.31;97832.97;2069803;28;20431;-58
2020/12/04 00:24:21;;;;;;;10.97;8.80;;;;;;;2.23;74.03;97827.81;2070194;28;20164;-57
2020/12/04 00:25:21;;;;;;;11.17;8.50;;;;;;;2.21;73.83;97827.91;2073893;28;20029;-57
2020/12/04 00:26:22;;;;;;;11.30;8.30;;;;;;;2.27;73.90;97819.13;2070007;28;20025;-58
2020/12/04 00:27:22;;;;;;;11.50;9.00;;;;;;;2.31;73.46;97826.69;2070188;28;20429;-57
2020/12/04 00:28:22;;;;;;;10.93;8.87;;;;;;;2.29;73.27;97817.34;2070107;28;20036;-57
2020/12/04 00:29:24;;;;;;;10.33;8.03;;;;;;;2.28;73.67;97816.50;2069888;28;20133;-58
2020/12/04 00:30:24;;;;;;;11.07;9.00;;;;;;;2.30;73.36;97814.72;2067444;28;20524;-58
2020/12/04 00:31:24;;;;;;;10.80;8.60;;;;;;;2.26;73.69;97822.59;2069740;28;20041;-58
2020/12/04 00:32:25;;;;;;;10.17;9.03;;;;;;;2.25;73.71;97810.63;2069079;28;20045;-57
2020/12/04 00:33:25;;;;;;;11.20;8.97;;;;;;;2.30;73.88;97819.03;2070211;28;20037;-58
2020/12/04 00:34:26;;;;;;;9.83;8.50;;;;;;;2.32;73.00;97806.94;2069970;28;20038;-58
2020/12/04 00:35:26;;;;;;;10.10;8.50;;;;;;;2.26;73.45;97807.16;2069920;28;20087;-57
2020/12/04 00:36:30;;;;;;;13.07;8.87;;;;;;;2.25;73.63;97805.50;2070143;28;20084;-58
2020/12/04 00:37:30;;;;;;;11.00;8.20;;;;;;;2.23;73.67;97802.13;2070021;28;20032;-58
2020/12/04 00:38:30;;;;;;;12.93;8.93;;;;;;;2.26;73.92;97800.28;2069978;28;20482;-58
2020/12/04 00:39:31;;;;;;;10.63;8.40;;;;;;;2.23;73.91;97797.00;2069284;28;20022;-58
2020/12/04 00:40:31;;;;;;;10.70;8.83;;;;;;;2.26;73.29;97804.59;2069630;28;20482;-58
2020/12/04 00:41:31;;;;;;;10.80;8.30;;;;;;;2.25;73.54;97795.22;2069723;28;20037;-58
2020/12/04 00:42:32;;;;;;;11.03;9.17;;;;;;;2.21;73.95;97783.34;2067354;28;20029;-58
2020/12/04 00:43:32;;;;;;;10.50;8.40;;;;;;;2.27;73.56;97790.88;2075102;28;20570;-58
2020/12/04 00:44:32;;;;;;;11.07;8.53;;;;;;;2.33;72.70;97788.06;2077488;28;20029;-57
2020/12/04 00:45:32;;;;;;;10.63;8.73;;;;;;;2.31;73.07;97780.41;2069584;28;20474;-58
2020/12/04 00:46:33;;;;;;;10.20;8.47;;;;;;;2.30;72.76;97781.31;2070413;28;20604;-58
2020/12/04 00:47:33;;;;;;;10.67;8.43;;;;;;;2.28;73.12;97779.69;2068931;28;20227;-58
2020/12/04 00:48:39;;;;;;;10.97;8.97;;;;;;;2.30;72.86;97777.91;2070623;28;20029;-57
2020/12/04 00:49:40;;;;;;;11.18;8.85;;;;;;;2.29;73.06;97779.63;2076653;28;20027;-57
2020/12/04 00:50:41;;;;;;;11.43;8.03;;;;;;;2.36;72.31;97780.25;2077896;28;20304;-58
2020/12/04 00:51:41;;;;;;;9.57;8.33;;;;;;;2.36;72.81;97776.81;2070314;28;20052;-58
2020/12/04 00:52:41;;;;;;;10.20;8.50;;;;;;;2.33;72.64;97772.63;2062212;28;20030;-57
2020/12/04 00:53:41;;;;;;;10.27;8.10;;;;;;;2.33;73.34;97773.50;2069603;28;20037;-58
2020/12/04 00:54:42;;;;;;;13.23;8.80;;;;;;;2.33;72.59;97763.22;2069955;28;20162;-57
2020/12/04 00:55:42;;;;;;;10.77;8.40;;;;;;;2.39;72.69;97762.16;2077430;28;20360;-58
2020/12/04 00:56:42;;;;;;;11.17;8.70;;;;;;;2.40;72.64;97756.09;2078819;28;20032;-58
2020/12/04 00:57:43;;;;;;;11.90;8.80;;;;;;;2.41;72.20;97750.06;2078462;28;20028;-58
2020/12/04 00:58:46;;;;;;;11.27;8.40;;;;;;;2.39;72.29;97746.72;2077573;28;20726;-57
2020/12/04 00:59:46;;;;;;;10.18;8.07;;;;;;;2.48;72.13;97759.25;2072469;28;20032;-58
2020/12/04 01:00:46;;;;;;;10.13;8.17;;;;;;;2.50;71.62;97754.03;2074809;28;20037;-58
2020/12/04 01:01:47;;;;;;;10.37;8.43;;;;;;;2.46;72.04;97753.31;2070764;28;20470;-57
2020/12/04 01:02:47;;;;;;;10.15;7.95;;;;;;;2.46;71.92;97748.19;2070350;28;20033;-58
2020/12/04 01:03:47;;;;;;;9.77;8.30;;;;;;;2.48;71.78;97751.53;2070699;28;20109;-58
2020/12/04 01:04:48;;;;;;;10.53;8.03;;;;;;;2.53;71.97;97747.94;2070964;28;20036;-57
2020/12/04 01:05:48;;;;;;;10.93;8.40;;;;;;;2.54;71.48;97749.63;2070001;28;20068;-57
2020/12/04 01:06:48;;;;;;;10.70;8.60;;;;;;;2.46;72.31;97745.59;2070281;28;20459;-57
2020/12/04 01:07:48;;;;;;;10.40;8.10;;;;;;;2.50;71.86;97743.75;2070396;28;20108;-57
2020/12/04 01:08:49;;;;;;;10.27;8.10;;;;;;;2.45;72.29;97746.50;2070387;28;20474;-57
2020/12/04 01:09:49;;;;;;;11.03;8.23;;;;;;;2.54;71.95;97749.63;2069444;28;20136;-57
2020/12/04 01:10:49;;;;;;;13.60;8.83;;;;;;;2.48;71.87;97745.53;2069992;28;20498;-57
2020/12/04 01:11:51;;;;;;;11.93;8.93;;;;;;;2.56;71.32;97743.50;2062168;28;20115;-58
2020/12/04 01:12:51;;;;;;;9.60;7.97;;;;;;;2.56;71.59;97740.94;2063966;28;20030;-57
2020/12/04 01:13:51;;;;;;;10.33;8.40;;;;;;;2.57;71.40;97741.78;2069527;28;20033;-57
2020/12/04 01:14:51;;;;;;;9.37;8.00;;;;;;;2.58;72.17;97740.91;2069567;28;20029;-57
2020/12/04 01:15:52;;;;;;;10.47;8.23;;;;;;;2.55;71.70;97730.72;2070343;28;20462;-57
2020/12/04 01:16:52;;;;;;;10.90;8.63;;;;;;;2.60;71.40;97732.22;2070939;28;20025;-57
2020/12/04 01:17:52;;;;;;;10.60;8.33;;;;;;;2.61;71.41;97728.75;2072986;28;20112;-57
2020/12/04 01:18:53;;;;;;;9.60;8.00;;;;;;;2.69;71.32;97728.50;2067247;28;20117;-57
2020/12/04 01:19:54;;;;;;;11.33;8.00;;;;;;;2.65;70.99;97730.31;2064803;28;20113;-57
2020/12/04 01:20:54;;;;;;;10.18;8.10;;;;;;;2.70;71.19;97729.31;2062288;28;20038;-57
2020/12/04 01:21:54;;;;;;;10.57;8.13;;;;;;;2.68;71.02;97731.09;2070323;28;20160;-57
2020/12/04 01:22:54;;;;;;;9.47;8.13;;;;;;;2.74;70.85;97724.00;2069679;28;20091;-57
2020/12/04 01:23:55;;;;;;;11.13;7.90;;;;;;;2.74;71.10;97721.41;2070133;28;20390;-58
2020/12/04 01:24:55;;;;;;;10.73;8.63;;;;;;;2.72;71.18;97720.63;2068963;28;20038;-57
2020/12/04 01:25:55;;;;;;;10.90;8.13;;;;;;;2.76;71.38;97718.78;2068869;28;20560;-57
2020/12/04 01:26:55;;;;;;;9.40;7.67;;;;;;;2.80;70.81;97716.03;2069208;28;20322;-57
2020/12/04 01:27:56;;;;;;;11.63;8.67;;;;;;;2.72;71.30;97712.91;2070162;28;20625;-57
2020/12/04 01:28:56;;;;;;;11.20;7.87;;;;;;;2.72;71.65;97712.91;2069843;28;20057;-57
2020/12/04 01:29:56;;;;;;;12.83;8.07;;;;;;;2.80;71.31;97705.75;2069469;28;20096;-57
2020/12/04 01:30:57;;;;;;;10.13;7.47;;;;;;;2.80;71.02;97704.91;2069240;28;20036;-57
2020/12/04 01:31:57;;;;;;;10.40;8.30;;;;;;;2.79;71.46;97698.91;2069388;28;20108;-58
2020/12/04 01:32:57;;;;;;;9.30;7.70;;;;;;;2.79;71.57;97696.34;2069788;28;20072;-57
2020/12/04 01:34:00;;;;;;;10.27;8.07;;;;;;;2.79;71.31;97698.91;2070199;28;20033;-58
2020/12/04 01:35:00;;;;;;;9.45;7.85;;;;;;;2.79;71.32;97690.38;2069770;28;20029;-57
2020/12/04 01:36:01;;;;;;;10.53;8.10;;;;;;;2.84;71.32;97695.34;2069977;28;20042;-58
2020/12/04 01:37:01;;;;;;;9.77;7.97;;;;;;;2.83;71.48;97693.66;2069922;28;20099;-57
2020/12/04 01:38:01;;;;;;;10.23;8.03;;;;;;;2.75;72.10;97697.38;2069466;28;20441;-58
2020/12/04 01:39:02;;;;;;;9.60;7.73;;;;;;;2.78;72.10;97696.41;2051900;23;20052;-79
2020/12/04 01:40:03;;;;;;;10.02;7.82;;;;;;;2.81;71.81;97693.72;2059288;28;20043;-80
2020/12/04 01:41:03;;;;;;;9.20;7.33;;;;;;;2.82;71.75;97691.97;2039387;29;20137;-80
2020/12/04 01:42:03;;;;;;;9.97;7.50;;;;;;;2.78;72.37;97697.28;2039055;29;20102;-80
2020/12/04 01:43:04;;;;;;;10.07;8.13;;;;;;;2.75;72.69;97691.38;2041034;29;20035;-80
2020/12/04 01:44:04;;;;;;;8.27;6.90;;;;;;;2.79;72.13;97691.19;2039743;28;20402;-80
2020/12/04 01:45:05;;;;;;;9.90;7.83;;;;;;;2.77;72.74;97694.72;2039768;29;20504;-80
2020/12/04 01:46:05;;;;;;;10.43;7.53;;;;;;;2.79;72.46;97690.38;2038643;29;20035;-79
2020/12/04 01:47:05;;;;;;;9.73;7.67;;;;;;;2.88;72.38;97696.91;2038541;29;20039;-80
2020/12/04 01:48:06;;;;;;;11.23;7.47;;;;;;;2.83;72.68;97693.66;2039441;28;20150;-77
2020/12/04 01:49:06;;;;;;;9.90;7.60;;;;;;;2.79;72.79;97691.19;2039668;29;20520;-80
2020/12/04 01:50:07;;;;;;;9.00;7.67;;;;;;;2.79;72.83;97687.81;2039663;29;20310;-80
2020/12/04 01:51:07;;;;;;;16.97;8.10;;;;;;;2.76;73.03;97687.91;2039507;29;20032;-80
2020/12/04 01:52:07;;;;;;;8.93;7.33;;;;;;;2.82;72.95;97685.13;2039491;28;20040;-80
2020/12/04 01:53:08;;;;;;;9.13;7.40;;;;;;;2.84;72.75;97687.63;2039598;29;20043;-78
2020/12/04 01:54:08;;;;;;;9.67;7.43;;;;;;;2.85;72.75;97682.41;2038992;29;20059;-78
2020/12/04 01:55:09;;;;;;;10.17;7.47;;;;;;;2.79;73.18;97687.81;2039498;29;20505;-79
2020/12/04 01:56:09;;;;;;;9.17;7.67;;;;;;;2.82;73.16;97686.84;2039512;28;20748;-78
2020/12/04 01:57:09;;;;;;;9.10;7.20;;;;;;;2.77;73.35;97687.00;2039541;29;20098;-79
2020/12/04 01:58:11;;;;;;;11.87;6.77;;;;;;;2.83;73.21;97686.78;2039505;29;20067;-80
2020/12/04 01:59:12;;;;;;;9.50;7.63;;;;;;;2.84;73.05;97678.16;2039409;29;20047;-83
2020/12/04 02:00:13;;;;;;;9.07;7.03;;;;;;;2.87;73.26;97685.75;2039479;29;20028;-79
2020/12/04 02:01:16;;;;;;;10.00;8.25;;;;;;;2.88;73.24;97691.75;2038851;29;20062;-82
2020/12/04 02:02:21;;;;;;;9.05;7.70;;;;;;;2.88;72.98;97681.47;2039197;28;20067;-78
2020/12/04 02:03:21;;;;;;;11.95;7.68;;;;;;;2.90;73.01;97680.50;2039169;29;20027;-79
2020/12/04 02:04:22;;;;;;;8.63;7.23;;;;;;;2.88;73.40;97682.28;2039156;29;20682;-79
2020/12/04 02:05:22;;;;;;;9.43;7.90;;;;;;;2.89;73.26;97678.00;2039431;29;20027;-80
2020/12/04 02:06:30;;;;;;;8.70;7.30;;;;;;;2.87;73.29;97684.94;2039322;29;20035;-82
2020/12/04 02:07:39;;;;;;;9.18;7.32;;;;;;;2.97;72.77;97678.53;2039499;29;20024;-82
2020/12/04 02:08:53;;;;;;;8.82;6.95;;;;;;;3.05;72.61;97681.63;2038922;29;20031;-75
2020/12/04 02:09:59;;;;;;;9.50;7.13;;;;;;;3.04;72.48;97681.66;2031437;29;20055;-78
2020/12/04 02:11:11;;;;;;;8.52;6.60;;;;;;;3.02;72.74;97686.06;2032499;28;20028;-79
2020/12/04 02:12:16;;;;;;;10.00;7.28;;;;;;;3.02;72.58;97679.16;2039078;29;20081;-81
2020/12/04 02:13:17;;;;;;;9.43;7.30;;;;;;;2.96;73.12;97682.00;2039139;29;20032;-81
2020/12/04 02:14:18;;;;;;;9.50;6.93;;;;;;;3.03;72.75;97695.47;2039423;29;20035;-81
2020/12/04 02:15:19;;;;;;;;;;;;;;;3.06;72.32;97695.31;2038863;28;20031;-81
2020/12/04 02:16:20;;;;;;;10.13;6.50;;;;;;;3.11;72.18;97689.09;2038513;29;19921;-82
2020/12/04 02:17:33;;;;;;;10.30;7.50;;;;;;;3.09;71.93;97674.63;2040577;29;20038;-80
2020/12/04 02:18:36;;;;;;;7.90;6.53;;;;;;;3.18;71.54;97681.97;2042508;28;20544;-80
2020/12/04 02:19:41;;;;;;;10.23;6.85;;;;;;;3.13;72.08;97683.91;2039295;28;20580;-83
2020/12/04 02:20:42;;;;;;;9.48;7.45;;;;;;;3.16;71.65;97682.94;2039251;29;20031;-80
2020/12/04 02:21:42;;;;;;;9.20;7.03;;;;;;;3.14;72.03;97688.13;2039394;29;20023;-79
2020/12/04 02:22:43;;;;;;;9.60;7.45;;;;;;;3.16;71.47;97685.50;2039230;29;20019;-79
2020/12/04 02:23:50;;;;;;;10.20;7.50;;;;;;;3.22;70.86;97683.53;2038952;28;20201;-80
2020/12/04 02:24:52;;;;;;;8.13;6.70;;;;;;;3.20;71.00;97676.75;2046445;29;20077;-80
2020/12/04 02:25:53;;;;;;;;;;;;;;;3.25;70.52;97664.53;2046984;28;20038;-80
2020/12/04 02:26:54;;;;;;;9.40;7.20;;;;;;;3.25;70.46;97657.63;2038455;29;19919;-81
2020/12/04 02:27:54;;;;;;;8.90;7.10;;;;;;;3.25;70.57;97660.22;2039404;29;20043;-81
2020/12/04 02:28:55;;;;;;;9.90;7.30;;;;;;;3.30;69.92;97664.34;2039558;29;20134;-81
2020/12/04 02:29:56;;;;;;;9.63;7.15;;;;;;;3.26;70.77;97666.22;2039459;28;20043;-80
2020/12/04 02:30:56;;;;;;;11.20;7.18;;;;;;;3.33;69.81;97661.66;2039152;29;20039;-80
2020/12/04 02:31:57;;;;;;;9.40;7.70;;;;;;;3.30;70.58;97659.19;2039034;29;20843;-81
2020/12/04 02:32:57;;;;;;;10.20;7.63;;;;;;;3.25;70.76;97665.34;2046470;28;20126;-81
2020/12/04 02:33:58;;;;;;;10.47;6.70;;;;;;;3.25;71.09;97669.69;2046560;29;20034;-81
2020/12/04 02:34:58;;;;;;;9.57;7.47;;;;;;;3.19;71.71;97662.19;2038702;29;20114;-80
2020/12/04 02:35:59;;;;;;;10.87;7.37;;;;;;;3.23;70.58;97656.03;2038619;29;20036;-80
2020/12/04 02:36:59;;;;;;;9.45;7.15;;;;;;;3.22;71.31;97669.81;2038574;29;20039;-80
2020/12/04 02:37:59;;;;;;;10.00;7.53;;;;;;;3.24;70.85;97668.00;2030612;28;20486;-81
2020/12/04 02:38:59;;;;;;;9.67;7.57;;;;;;;3.23;71.28;97671.47;2038371;29;20035;-80
2020/12/04 02:40:00;;;;;;;11.03;7.50;;;;;;;3.27;70.76;97655.84;2041086;28;20085;-81
2020/12/04 02:41:00;;;;;;;8.47;6.63;;;;;;;3.24;71.14;97660.28;2047927;29;20117;-80
2020/12/04 02:42:02;;;;;;;9.70;7.43;;;;;;;3.21;70.67;97666.41;2047822;28;20023;-81
2020/12/04 02:43:02;;;;;;;9.90;7.00;;;;;;;3.16;70.82;97660.59;2040485;29;20486;-81
2020/12/04 02:44:02;;;;;;;9.33;7.23;;;;;;;3.22;70.86;97647.50;2040544;28;20024;-81
2020/12/04 02:45:03;;;;;;;9.77;7.70;;;;;;;3.19;72.00;97660.47;2040701;29;20509;-81
2020/12/04 02:46:07;;;;;;;10.40;7.60;;;;;;;3.26;70.91;97673.94;2041694;28;20031;-81
2020/12/04 02:47:07;;;;;;;9.77;7.10;;;;;;;3.27;70.90;97702.19;2049154;28;20075;-81
2020/12/04 02:48:08;;;;;;;8.60;7.53;;;;;;;3.31;70.06;97674.56;2043854;28;20028;-80
2020/12/04 02:49:08;;;;;;;12.53;7.57;;;;;;;3.23;71.26;97690.31;2040554;29;20111;-80
2020/12/04 02:50:09;;;;;;;8.70;7.07;;;;;;;3.23;71.39;97685.16;2040567;28;20024;-81
2020/12/04 02:51:09;;;;;;;9.30;7.77;;;;;;;3.31;71.11;97682.28;2040551;29;20031;-80
2020/12/04 02:52:09;;;;;;;10.00;7.87;;;;;;;3.23;71.90;97692.06;2040360;29;20475;-80
2020/12/04 02:53:09;;;;;;;9.77;7.83;;;;;;;3.16;72.68;97680.34;2047576;29;20031;-81
2020/12/04 02:54:10;;;;;;;10.27;7.70;;;;;;;3.11;73.03;97698.56;2055668;28;20488;-81
2020/12/04 02:55:11;;;;;;;9.18;7.75;;;;;;;3.15;71.70;97694.94;2055837;28;20022;-81
2020/12/04 02:56:16;;;;;;;12.07;8.10;;;;;;;3.20;71.19;97693.03;2048450;28;20062;-81
2020/12/04 02:57:17;;;;;;;10.85;8.27;;;;;;;3.16;71.61;97691.47;2040209;29;20525;-81
2020/12/04 02:58:17;;;;;;;11.07;7.87;;;;;;;3.13;72.44;97683.91;2039864;28;20039;-81
2020/12/04 02:59:17;;;;;;;9.57;7.43;;;;;;;3.18;71.41;97683.72;2040517;29;20268;-80
2020/12/04 03:00:18;;;;;;;9.93;7.63;;;;;;;3.17;72.51;97682.84;2040451;29;20035;-81
2020/12/04 03:01:18;;;;;;;9.80;7.78;;;;;;;3.19;72.74;97675.06;2039824;29;20028;-81
2020/12/04 03:02:19;;;;;;;9.87;7.77;;;;;;;3.08;73.42;97668.66;2031732;29;20095;-80
2020/12/04 03:03:19;;;;;;;11.60;8.50;;;;;;;3.05;73.80;97667.91;2039505;29;20031;-81
2020/12/04 03:04:19;;;;;;;8.97;7.70;;;;;;;3.06;74.41;97664.44;2040358;29;20433;-80
2020/12/04 03:05:19;;;;;;;10.20;8.13;;;;;;;3.06;73.84;97667.88;2040115;28;20032;-80
2020/12/04 03:06:20;;;;;;;9.97;8.00;;;;;;;3.06;74.91;97672.16;2040263;29;20047;-81
2020/12/04 03:07:20;;;;;;;10.13;7.83;;;;;;;3.04;75.48;97672.22;2040414;29;20078;-80
2020/12/04 03:08:20;;;;;;;8.23;7.17;;;;;;;3.03;74.61;97669.72;2047417;28;20023;-80
2020/12/04 03:09:25;;;;;;;9.85;7.72;;;;;;;3.05;75.25;97667.91;2047117;28;20019;-80
2020/12/04 03:10:25;;;;;;;8.93;7.70;;;;;;;3.02;75.88;97668.88;2040162;29;20034;-80
2020/12/04 03:11:25;;;;;;;9.53;7.30;;;;;;;3.02;76.01;97671.44;2040150;28;20059;-80
2020/12/04 03:12:26;;;;;;;10.17;7.63;;;;;;;3.06;75.41;97665.28;2040323;29;20394;-80
2020/12/04 03:13:26;;;;;;;9.53;7.50;;;;;;;3.03;76.05;97675.69;2040064;28;20024;-80
2020/12/04 03:14:26;;;;;;;11.13;8.93;;;;;;;3.03;76.02;97673.13;2040503;29;20066;-80
2020/12/04 03:15:26;;;;;;;9.27;7.50;;;;;;;3.09;76.03;97669.47;2040339;29;20023;-80
2020/12/04 03:16:27;;;;;;;8.90;7.37;;;;;;;3.07;76.48;97666.13;2039909;29;20486;-81
2020/12/04 03:17:28;;;;;;;9.87;7.97;;;;;;;3.05;76.25;97668.75;2040068;29;20466;-81
2020/12/04 03:18:28;;;;;;;11.93;8.02;;;;;;;3.07;75.97;97666.97;2040183;29;20024;-81
2020/12/04 03:19:28;;;;;;;10.77;7.90;;;;;;;3.05;76.11;97667.91;2039884;29;20059;-82
2020/12/04 03:20:28;;;;;;;9.50;8.00;;;;;;;3.08;76.47;97666.06;2040305;29;20059;-81
2020/12/04 03:21:30;;;;;;;11.77;8.37;;;;;;;3.09;77.22;97675.44;2040198;29;20141;-81
2020/12/04 03:22:30;;;;;;;10.10;7.75;;;;;;;3.07;76.92;97673.84;2047132;28;20031;-81
2020/12/04 03:23:30;;;;;;;10.77;8.30;;;;;;;3.08;76.05;97653.22;2047217;29;20434;-80
2020/12/04 03:24:33;;;;;;;10.03;7.63;;;;;;;3.07;76.47;97666.97;2040126;29;20028;-81
2020/12/04 03:25:33;;;;;;;9.73;7.93;;;;;;;3.03;77.44;97667.97;2047027;28;20032;-81
2020/12/04 03:26:34;;;;;;;10.37;8.33;;;;;;;3.06;76.91;97667.00;2047760;29;20070;-81
2020/12/04 03:27:34;;;;;;;9.63;7.63;;;;;;;3.04;76.50;97661.94;2040001;28;20023;-81
2020/12/04 03:28:34;;;;;;;12.20;8.50;;;;;;;3.06;77.08;97667.00;2047656;29;20096;-81
2020/12/04 03:29:35;;;;;;;11.13;8.53;;;;;;;2.98;77.51;97661.34;2047555;29;20393;-81
2020/12/04 03:30:35;;;;;;;10.20;8.10;;;;;;;3.02;76.83;97658.59;2040347;29;20031;-81
2020/12/04 03:31:35;;;;;;;10.40;8.00;;;;;;;2.98;77.30;97657.06;2040302;29;20027;-80
2020/12/04 03:32:35;;;;;;;10.53;8.33;;;;;;;2.93;78.13;97658.97;2039943;29;20494;-81
2020/12/04 03:33:36;;;;;;;12.10;9.20;;;;;;;2.92;77.98;97654.69;2040200;29;20478;-81
2020/12/04 03:34:36;;;;;;;10.27;8.33;;;;;;;2.90;78.57;97672.78;2039402;28;20051;-81
2020/12/04 03:35:36;;;;;;;11.13;8.27;;;;;;;2.86;78.47;97668.66;2039698;28;20088;-82
2020/12/04 03:36:37;;;;;;;11.73;8.60;;;;;;;2.86;79.04;97668.66;2040172;29;20078;-82
2020/12/04 03:37:37;;;;;;;10.80;8.77;;;;;;;2.90;78.94;97671.94;2039993;29;20065;-81
2020/12/04 03:38:37;;;;;;;13.23;8.50;;;;;;;2.88;79.05;97673.75;2039822;29;20504;-80
2020/12/04 03:39:37;;;;;;;11.30;8.17;;;;;;;2.84;79.39;97674.75;2040324;29;20078;-82
2020/12/04 03:40:38;;;;;;;11.60;8.77;;;;;;;2.82;79.01;97672.25;2045880;28;20113;-82
2020/12/04 03:41:38;;;;;;;11.93;9.03;;;;;;;2.82;79.02;97681.69;2047491;29;20050;-82
2020/12/04 03:42:38;;;;;;;11.60;8.60;;;;;;;2.78;80.11;97686.97;2039411;29;20028;-82
2020/12/04 03:43:42;;;;;;;12.80;9.60;;;;;;;2.79;80.15;97682.66;2047563;29;20493;-82
2020/12/04 03:44:42;;;;;;;12.27;8.32;;;;;;;2.78;79.57;97684.41;2041760;28;20030;-81
2020/12/04 03:45:42;;;;;;;13.90;8.97;;;;;;;2.78;80.49;97686.97;2040317;29;20027;-82
2020/12/04 03:46:50;;;;;;;11.20;8.97;;;;;;;2.76;80.15;97688.75;2040213;29;20628;-82
2020/12/04 03:47:50;;;;;;;11.82;9.07;;;;;;;2.70;80.93;97690.72;2040243;29;20023;-82
2020/12/04 03:48:50;;;;;;;12.50;9.00;;;;;;;2.73;80.87;97690.63;2040196;29;20471;-82
2020/12/04 03:49:51;;;;;;;12.17;8.93;;;;;;;2.70;79.97;97686.41;2047483;28;20030;-82
2020/12/04 03:50:51;;;;;;;10.83;8.17;;;;;;;2.73;80.14;97672.63;2047434;29;20393;-81
2020/12/04 03:51:51;;;;;;;11.23;8.33;;;;;;;2.69;80.65;97671.06;2039672;28;20063;-82
2020/12/04 03:52:52;;;;;;;9.48;7.45;;;;;;;2.77;79.81;97675.00;2039457;28;20032;-81
2020/12/04 03:53:52;;;;;;;10.47;8.07;;;;;;;2.83;79.50;97678.22;2040163;29;20063;-81
2020/12/04 03:54:52;;;;;;;12.27;8.67;;;;;;;2.87;79.77;97662.59;2047488;28;20045;-81
2020/12/04 03:55:53;;;;;;;9.70;7.83;;;;;;;2.99;79.56;97684.44;2046867;28;20023;-80
2020/12/04 03:56:53;;;;;;;10.30;8.43;;;;;;;2.95;79.56;97672.59;2039008;29;20432;-81
2020/12/04 03:57:53;;;;;;;11.17;8.70;;;;;;;2.92;80.69;97670.13;2039440;29;20478;-81
2020/12/04 03:58:53;;;;;;;11.73;8.33;;;;;;;2.90;79.68;97669.34;2038866;29;20044;-80
2020/12/04 03:59:54;;;;;;;12.80;9.70;;;;;;;2.89;79.71;97665.13;2038796;29;20063;-81
2020/12/04 04:00:55;;;;;;;11.87;9.03;;;;;;;2.89;79.61;97655.66;2045540;28;20020;-81
2020/12/04 04:01:56;;;;;;;11.45;9.40;;;;;;;2.88;79.79;97661.72;2046153;29;20050;-81
2020/12/04 04:02:57;;;;;;;9.80;8.05;;;;;;;2.94;79.20;97660.63;2045978;28;20074;-81
2020/12/04 04:03:58;;;;;;;10.23;7.80;;;;;;;2.91;80.19;97655.59;2046078;29;20030;-81
2020/12/04 04:04:58;;;;;;;11.25;8.13;;;;;;;2.91;80.56;97653.03;2038780;29;21718;-81
2020/12/04 04:05:58;;;;;;;10.23;8.17;;;;;;;2.91;80.71;97650.44;2038442;29;20073;-81
2020/12/04 04:06:58;;;;;;;8.37;7.37;;;;;;;3.01;79.75;97656.91;2039061;29;20043;-81
2020/12/04 04:07:59;;;;;;;9.57;7.97;;;;;;;3.05;80.63;97662.75;2038649;29;20093;-81
2020/12/04 04:08:59;;;;;;;8.93;7.63;;;;;;;2.98;81.61;97653.63;2046243;28;20027;-81
2020/12/04 04:09:59;;;;;;;10.80;7.77;;;;;;;2.99;80.01;97653.56;2047369;28;20487;-81
2020/12/04 04:11:00;;;;;;;11.23;8.17;;;;;;;3.03;80.75;97654.28;2040141;29;20423;-81
2020/12/04 04:12:00;;;;;;;10.23;7.90;;;;;;;3.02;80.27;97635.41;2040038;29;20081;-81
2020/12/04 04:13:00;;;;;;;10.63;7.10;;;;;;;3.03;80.80;97649.97;2047312;28;20031;-81
2020/12/04 04:14:01;;;;;;;11.03;7.93;;;;;;;2.99;81.39;97642.44;2047078;28;20038;-81
2020/12/04 04:15:01;;;;;;;9.07;7.40;;;;;;;2.98;80.71;97649.34;2039316;29;20066;-81
2020/12/04 04:16:02;;;;;;;8.73;7.50;;;;;;;3.08;81.28;97647.19;2040005;28;20082;-81
2020/12/04 04:17:02;;;;;;;9.57;7.80;;;;;;;2.98;81.41;97643.31;2040167;29;20024;-81
2020/12/04 04:18:02;;;;;;;10.13;8.27;;;;;;;2.95;81.83;97639.97;2047309;28;20114;-81
2020/12/04 04:19:03;;;;;;;9.50;7.17;;;;;;;2.98;81.00;97638.19;2047005;29;20485;-81
2020/12/04 04:20:04;;;;;;;10.13;7.90;;;;;;;3.02;81.70;97643.16;2040008;28;20474;-81
2020/12/04 04:21:09;;;;;;;;;;;;;;;2.94;81.59;97630.59;2062726;22;20130;-59
2020/12/04 04:22:09;;;;;;;9.10;7.47;;;;;;;2.91;82.00;97641.00;2064011;28;19922;-59
2020/12/04 04:23:09;;;;;;;13.53;7.80;;;;;;;2.99;82.22;97627.81;2064527;28;20018;-59
2020/12/04 04:24:10;;;;;;;9.07;7.30;;;;;;;3.04;80.72;97631.06;2064236;28;20454;-59
2020/12/04 04:25:12;;;;;;;9.07;7.43;;;;;;;3.07;81.51;97635.22;2064710;28;20054;-59
2020/12/04 04:26:13;;;;;;;9.70;7.40;;;;;;;3.01;81.92;97640.66;2064382;28;20030;-59
2020/12/04 04:27:13;;;;;;;9.53;7.77;;;;;;;3.07;81.60;97641.25;2064147;28;20478;-59
2020/12/04 04:28:13;;;;;;;8.33;7.43;;;;;;;3.09;81.18;97643.72;2064624;28;20037;-59
2020/12/04 04:29:14;;;;;;;10.17;7.60;;;;;;;3.08;81.19;97636.91;2064568;28;20105;-59
2020/12/04 04:30:14;;;;;;;8.93;7.22;;;;;;;3.04;81.83;97643.94;2064653;28;20049;-59
2020/12/04 04:31:15;;;;;;;8.23;7.00;;;;;;;3.10;80.91;97642.84;2064766;28;20386;-59
2020/12/04 04:32:15;;;;;;;8.53;6.60;;;;;;;3.16;80.40;97647.72;2064375;28;20079;-59
2020/12/04 04:33:15;;;;;;;8.80;7.07;;;;;;;3.13;81.26;97647.00;2064495;28;20101;-59
2020/12/04 04:34:16;;;;;;;10.07;7.13;;;;;;;3.09;81.27;97646.31;2064380;28;20056;-58
2020/12/04 04:35:16;;;;;;;8.73;7.03;;;;;;;3.07;81.74;97660.97;2064211;28;20406;-59
2020/12/04 04:36:16;;;;;;;8.17;6.80;;;;;;;3.10;81.22;97645.41;2064391;28;20030;-59
2020/12/04 04:37:17;;;;;;;9.40;7.30;;;;;;;3.10;81.45;97646.22;2064505;28;20113;-59
2020/12/04 04:38:17;;;;;;;9.70;7.00;;;;;;;3.13;80.85;97639.28;2064443;28;20022;-59
2020/12/04 04:39:17;;;;;;;8.33;6.63;;;;;;;3.16;81.05;97640.00;2064355;28;20053;-59
2020/12/04 04:40:17;;;;;;;9.33;6.90;;;;;;;3.16;80.67;97634.84;2064617;28;20465;-59
2020/12/04 04:41:18;;;;;;;8.17;7.30;;;;;;;3.14;81.12;97636.66;2064506;28;20093;-59
2020/12/04 04:42:18;;;;;;;9.35;7.45;;;;;;;3.14;80.63;97639.22;2064272;28;20057;-59
2020/12/04 04:43:19;;;;;;;9.67;7.17;;;;;;;3.11;81.08;97636.78;2064455;28;20041;-59
2020/12/04 04:44:20;;;;;;;9.70;6.97;;;;;;;3.14;80.87;97634.06;2064537;28;20386;-59
2020/12/04 04:45:20;;;;;;;9.15;6.57;;;;;;;3.17;81.15;97630.56;2064354;28;20080;-59
2020/12/04 04:46:47;;;;;;;10.47;7.87;;;;;;;3.11;80.98;97629.91;2064375;28;20076;-59
2020/12/04 04:47:49;;;;;;;8.20;6.63;;;;;;;3.22;80.42;97631.19;2064761;28;20077;-59